createdAt,value
2022-12-31T00:01:23.755Z,1.16
2022-12-31T00:03:50.622Z,1.05
2022-12-31T00:06:22.959Z,1.11
2022-12-31T00:08:50.218Z,1.12
2022-12-31T00:11:17.117Z,1.00
2022-12-31T00:13:43.986Z,1.11
2022-12-31T00:16:22.375Z,1.04
2022-12-31T00:18:52.343Z,1.05
2022-12-31T00:21:19.652Z,0.99
2022-12-31T00:23:46.384Z,0.90
2022-12-31T00:26:21.260Z,0.83
2022-12-31T00:28:48.678Z,0.97
2022-12-31T00:31:20.698Z,0.95
2022-12-31T00:33:47.753Z,0.95
2022-12-31T00:36:18.715Z,0.93
2022-12-31T00:38:48.583Z,0.93
2022-12-31T00:41:16.276Z,0.77
2022-12-31T00:43:43.517Z,0.75
2022-12-31T00:46:11.206Z,0.86
2022-12-31T00:48:38.239Z,0.87
2022-12-31T00:51:07.177Z,0.78
2022-12-31T00:53:34.352Z,0.83
2022-12-31T00:56:10.058Z,0.81
2022-12-31T00:58:36.820Z,0.80
2022-12-31T01:01:17.177Z,0.78
2022-12-31T01:03:44.437Z,0.73
2022-12-31T01:06:11.750Z,0.75
2022-12-31T01:08:38.665Z,0.70
2022-12-31T01:11:24.097Z,0.65
2022-12-31T01:13:56.360Z,0.63
2022-12-31T01:16:33.718Z,0.66
2022-12-31T01:19:01.908Z,0.53
2022-12-31T01:21:29.758Z,0.45
2022-12-31T01:23:56.589Z,0.25
2022-12-31T01:26:23.322Z,0.32
2022-12-31T01:28:50.021Z,0.24
2022-12-31T01:31:19.582Z,0.25
2022-12-31T01:33:46.711Z,0.03
2022-12-31T01:36:25.376Z,0.12
2022-12-31T01:38:53.294Z,0.12
2022-12-31T01:41:22.868Z,0.24
2022-12-31T01:43:56.846Z,0.29
2022-12-31T01:46:48.622Z,0.30
2022-12-31T01:49:23.126Z,0.32
2022-12-31T01:51:58.890Z,0.23
2022-12-31T01:54:27.020Z,0.30
2022-12-31T01:56:54.524Z,0.33
2022-12-31T01:59:22.031Z,0.26
2022-12-31T02:01:52.793Z,0.35
2022-12-31T02:04:21.835Z,0.29
2022-12-31T02:07:09.368Z,0.26
2022-12-31T02:09:40.655Z,0.18
2022-12-31T02:12:08.129Z,0.22
2022-12-31T02:14:40.551Z,0.17
2022-12-31T02:17:26.544Z,0.12
2022-12-31T02:20:19.628Z,0.16
2022-12-31T02:23:16.879Z,0.16
2022-12-31T02:26:08.657Z,0.13
2022-12-31T02:28:43.751Z,0.17
2022-12-31T02:31:17.971Z,0.23
2022-12-31T02:33:52.144Z,0.26
2022-12-31T02:36:21.497Z,0.20
2022-12-31T02:38:48.875Z,0.03
2022-12-31T02:41:37.128Z,-0.07
2022-12-31T02:44:23.745Z,0.16
2022-12-31T02:47:08.810Z,0.15
2022-12-31T02:50:00.441Z,-0.02
2022-12-31T02:52:39.195Z,-0.23
2022-12-31T02:55:24.606Z,-0.47
2022-12-31T02:57:51.171Z,-0.55
2022-12-31T03:00:36.887Z,-0.40
2022-12-31T03:03:03.546Z,-0.48
2022-12-31T03:05:32.924Z,-0.05
2022-12-31T03:07:59.668Z,-0.36
2022-12-31T03:10:26.377Z,-0.47
2022-12-31T03:12:53.418Z,-0.27
2022-12-31T03:15:23.089Z,-0.16
2022-12-31T03:18:07.928Z,-0.13
2022-12-31T03:20:59.594Z,-0.32
2022-12-31T03:23:38.506Z,-0.36
2022-12-31T03:26:10.404Z,-0.47
2022-12-31T03:28:38.751Z,-0.36
2022-12-31T03:31:07.782Z,-0.37
2022-12-31T03:33:37.241Z,-0.31
2022-12-31T03:36:12.185Z,-0.24
2022-12-31T03:38:38.909Z,-0.31
2022-12-31T03:41:05.815Z,-0.44
2022-12-31T03:43:32.607Z,-0.53
2022-12-31T03:46:01.594Z,-0.71
2022-12-31T03:48:28.677Z,-0.72
2022-12-31T03:50:55.438Z,-0.92
2022-12-31T03:53:22.016Z,-0.60
2022-12-31T03:55:53.269Z,-0.52
2022-12-31T03:58:20.123Z,-0.53
2022-12-31T04:00:46.803Z,-0.72
2022-12-31T04:03:13.556Z,-0.76
2022-12-31T04:05:40.545Z,-0.78
2022-12-31T04:08:07.367Z,-0.81
2022-12-31T04:10:34.156Z,-0.80
2022-12-31T04:13:02.556Z,-0.78
2022-12-31T04:15:29.217Z,-0.78
2022-12-31T04:17:55.923Z,-0.80
2022-12-31T04:20:22.566Z,-0.69
2022-12-31T04:22:49.273Z,-0.78
2022-12-31T04:25:16.043Z,-0.75
2022-12-31T04:27:45.465Z,-0.81
2022-12-31T04:30:13.470Z,-0.76
2022-12-31T04:32:40.336Z,-0.86
2022-12-31T04:35:07.722Z,-0.87
2022-12-31T04:37:34.389Z,-0.84
2022-12-31T04:40:05.955Z,-0.88
2022-12-31T04:42:34.033Z,-0.88
2022-12-31T04:45:00.707Z,-1.02
2022-12-31T04:47:27.410Z,-0.92
2022-12-31T04:49:54.076Z,-1.04
2022-12-31T04:52:20.773Z,-1.07
2022-12-31T04:54:47.539Z,-1.10
2022-12-31T04:57:14.333Z,-1.16
2022-12-31T04:59:41.002Z,-1.17
2022-12-31T05:02:07.964Z,-1.12
2022-12-31T05:04:34.876Z,-1.12
2022-12-31T05:07:01.513Z,-1.21
2022-12-31T05:09:28.498Z,-1.18
2022-12-31T05:11:55.196Z,-1.13
2022-12-31T05:14:22.040Z,-1.29
2022-12-31T05:16:48.741Z,-1.23
2022-12-31T05:19:15.557Z,-1.29
2022-12-31T05:21:42.252Z,-1.28
2022-12-31T05:24:09.043Z,-1.17
2022-12-31T05:26:35.791Z,-1.19
2022-12-31T05:29:02.399Z,-1.20
2022-12-31T05:31:29.164Z,-1.28
2022-12-31T05:33:55.891Z,-1.13
2022-12-31T05:36:22.536Z,-1.11
2022-12-31T05:38:49.163Z,-1.11
2022-12-31T05:41:15.834Z,-1.08
2022-12-31T05:43:42.469Z,-1.16
2022-12-31T05:46:09.189Z,-1.14
2022-12-31T05:48:35.873Z,-1.12
2022-12-31T05:51:02.600Z,-1.16
2022-12-31T05:53:29.234Z,-1.05
2022-12-31T05:55:55.906Z,-1.03
2022-12-31T05:58:22.569Z,-1.03
2022-12-31T06:00:49.270Z,-0.94
2022-12-31T06:03:16.101Z,-1.00
2022-12-31T06:05:43.571Z,-1.01
2022-12-31T06:08:12.150Z,-0.92
2022-12-31T06:10:39.647Z,-0.95
2022-12-31T06:13:06.460Z,-0.94
2022-12-31T06:15:33.269Z,-0.95
2022-12-31T06:17:59.991Z,-0.94
2022-12-31T06:20:26.684Z,-0.87
2022-12-31T06:22:53.519Z,-0.83
2022-12-31T06:25:20.202Z,-0.88
2022-12-31T06:27:46.906Z,-0.84
2022-12-31T06:30:13.999Z,-0.93
2022-12-31T06:32:40.961Z,-1.00
2022-12-31T06:35:08.178Z,-1.06
2022-12-31T06:37:34.909Z,-1.07
2022-12-31T06:40:01.622Z,-0.85
2022-12-31T06:42:30.906Z,-0.78
2022-12-31T06:44:58.722Z,-0.74
2022-12-31T06:47:25.879Z,-0.90
2022-12-31T06:49:53.256Z,-0.87
2022-12-31T06:52:20.640Z,-0.84
2022-12-31T06:54:47.926Z,-0.83
2022-12-31T06:57:14.956Z,-0.81
2022-12-31T06:59:41.998Z,-0.68
2022-12-31T07:02:32.016Z,-0.79
2022-12-31T07:05:18.239Z,-0.59
2022-12-31T07:08:06.405Z,-0.54
2022-12-31T07:10:53.725Z,-0.77
2022-12-31T07:13:57.965Z,-0.86
2022-12-31T07:16:39.745Z,-0.74
2022-12-31T07:19:16.586Z,-0.71
2022-12-31T07:21:43.700Z,-0.49
2022-12-31T07:24:11.787Z,-0.42
2022-12-31T07:27:00.261Z,-0.26
2022-12-31T07:29:39.072Z,-0.44
2022-12-31T07:32:18.546Z,-0.49
2022-12-31T07:35:00.431Z,-0.31
2022-12-31T07:37:53.537Z,-0.19
2022-12-31T07:40:41.522Z,-0.21
2022-12-31T07:43:36.392Z,-0.19
2022-12-31T07:46:06.184Z,-0.27
2022-12-31T07:48:36.844Z,-0.04
2022-12-31T07:51:03.968Z,-0.11
2022-12-31T07:53:31.046Z,-0.28
2022-12-31T07:56:02.560Z,-0.12
2022-12-31T07:58:45.798Z,-0.17
2022-12-31T08:01:14.855Z,-0.02
2022-12-31T08:03:56.022Z,0.07
2022-12-31T08:06:51.515Z,0.18
2022-12-31T08:09:39.930Z,0.14
2022-12-31T08:12:08.027Z,0.16
2022-12-31T08:14:40.328Z,0.29
2022-12-31T08:17:07.230Z,0.21
2022-12-31T08:19:34.210Z,0.52
2022-12-31T08:22:19.228Z,0.60
2022-12-31T08:24:58.402Z,0.94
2022-12-31T08:27:37.357Z,0.99
2022-12-31T08:30:42.362Z,1.29
2022-12-31T08:36:17.869Z,1.43
2022-12-31T08:38:53.223Z,1.54
2022-12-31T08:41:30.667Z,1.73
2022-12-31T08:44:12.811Z,2.06
2022-12-31T08:46:40.609Z,2.30
2022-12-31T08:49:09.313Z,2.33
2022-12-31T08:51:36.336Z,2.32
2022-12-31T08:54:04.045Z,2.48
2022-12-31T08:56:34.899Z,2.68
2022-12-31T08:59:01.622Z,2.89
2022-12-31T09:01:32.192Z,3.01
2022-12-31T09:04:06.315Z,3.33
2022-12-31T09:06:36.742Z,3.13
2022-12-31T09:09:33.413Z,3.18
2022-12-31T09:12:00.132Z,3.28
2022-12-31T09:14:36.294Z,3.16
2022-12-31T09:17:36.017Z,3.13
2022-12-31T09:20:03.144Z,3.14
2022-12-31T09:22:30.191Z,3.18
2022-12-31T09:24:57.110Z,3.28
2022-12-31T09:27:42.055Z,3.57
2022-12-31T09:30:11.046Z,3.81
2022-12-31T09:33:01.157Z,3.94
2022-12-31T09:35:38.002Z,4.10
2022-12-31T09:38:24.852Z,4.21
2022-12-31T09:41:03.444Z,4.43
2022-12-31T09:43:39.208Z,4.52
2022-12-31T09:46:21.172Z,4.55
2022-12-31T09:49:23.223Z,4.66
2022-12-31T09:52:09.539Z,4.86
2022-12-31T09:54:43.743Z,5.06
2022-12-31T09:57:23.988Z,5.02
2022-12-31T10:00:05.725Z,5.46
2022-12-31T10:02:59.915Z,5.46
2022-12-31T10:05:50.741Z,5.58
2022-12-31T10:08:17.331Z,5.73
2022-12-31T10:10:51.045Z,5.70
2022-12-31T10:13:41.877Z,5.93
2022-12-31T10:16:27.576Z,5.89
2022-12-31T10:19:12.986Z,5.85
2022-12-31T10:22:27.165Z,5.95
2022-12-31T10:25:18.355Z,5.99
2022-12-31T10:28:07.089Z,5.90
2022-12-31T10:30:35.334Z,6.00
2022-12-31T10:33:34.580Z,5.92
2022-12-31T10:36:21.410Z,5.93
2022-12-31T10:39:14.486Z,5.96
2022-12-31T10:42:21.314Z,6.00
2022-12-31T10:45:12.566Z,5.94
2022-12-31T10:47:51.177Z,5.85
2022-12-31T10:50:29.788Z,5.97
2022-12-31T10:53:18.291Z,5.96
2022-12-31T10:56:00.384Z,6.04
2022-12-31T10:58:49.099Z,6.02
2022-12-31T11:01:25.001Z,6.07
2022-12-31T11:04:13.409Z,6.14
2022-12-31T11:06:45.886Z,6.24
2022-12-31T11:10:00.401Z,6.34
2022-12-31T11:12:51.504Z,6.36
2022-12-31T11:15:20.992Z,6.20
2022-12-31T11:17:53.571Z,6.03
2022-12-31T11:20:46.369Z,6.00
2022-12-31T11:23:41.471Z,5.94
2022-12-31T11:26:29.981Z,5.99
2022-12-31T11:29:26.273Z,5.88
2022-12-31T11:32:02.016Z,5.77
2022-12-31T11:34:48.884Z,5.73
2022-12-31T11:37:41.650Z,5.77
2022-12-31T11:40:30.436Z,5.98
2022-12-31T11:42:59.919Z,5.78
2022-12-31T11:46:25.431Z,5.82
2022-12-31T11:49:11.093Z,6.05
2022-12-31T11:52:02.865Z,6.08
2022-12-31T11:54:48.115Z,6.15
2022-12-31T11:57:30.188Z,6.23
2022-12-31T12:00:03.756Z,6.12
2022-12-31T12:02:35.393Z,6.02
2022-12-31T12:05:10.738Z,5.86
2022-12-31T12:07:37.931Z,5.94
2022-12-31T12:10:36.796Z,5.84
2022-12-31T12:13:23.698Z,5.92
2022-12-31T12:15:52.997Z,5.85
2022-12-31T12:18:47.933Z,5.85
2022-12-31T12:21:16.241Z,5.83
2022-12-31T12:24:04.454Z,5.64
2022-12-31T12:26:43.247Z,5.55
2022-12-31T12:29:22.003Z,5.53
2022-12-31T12:32:06.847Z,5.39
2022-12-31T12:34:37.329Z,5.45
2022-12-31T12:37:04.367Z,5.34
2022-12-31T12:39:33.828Z,5.28
2022-12-31T12:42:18.639Z,5.27
2022-12-31T12:44:45.394Z,5.26
2022-12-31T12:47:15.762Z,5.23
2022-12-31T12:49:45.501Z,5.20
2022-12-31T12:52:40.471Z,5.14
2022-12-31T12:55:20.918Z,5.13
2022-12-31T12:58:19.204Z,5.02
2022-12-31T13:01:03.377Z,5.00
2022-12-31T13:07:02.767Z,4.82
2022-12-31T13:09:47.906Z,4.78
2022-12-31T13:13:04.846Z,4.64
2022-12-31T13:15:34.579Z,4.49
2022-12-31T13:18:28.977Z,4.45
2022-12-31T13:21:33.360Z,4.38
2022-12-31T13:24:12.034Z,4.29
2022-12-31T13:27:34.672Z,4.21
2022-12-31T13:30:04.285Z,4.09
2022-12-31T13:33:19.810Z,4.13
2022-12-31T13:35:56.833Z,4.07
2022-12-31T13:38:37.660Z,4.14
2022-12-31T13:41:25.399Z,4.11
2022-12-31T13:44:03.048Z,4.08
2022-12-31T13:46:41.917Z,4.13
2022-12-31T13:49:31.637Z,4.23
2022-12-31T13:52:14.713Z,4.06
2022-12-31T13:54:59.632Z,4.13
2022-12-31T13:57:55.981Z,3.99
2022-12-31T14:00:25.392Z,3.94
2022-12-31T14:03:19.448Z,3.80
2022-12-31T14:05:55.441Z,3.71
2022-12-31T14:08:22.313Z,3.76
2022-12-31T14:11:04.441Z,3.70
2022-12-31T14:13:37.187Z,3.65
2022-12-31T14:16:19.262Z,3.60
2022-12-31T14:18:58.209Z,3.55
2022-12-31T14:21:43.390Z,3.51
2022-12-31T14:24:16.073Z,3.50
2022-12-31T14:26:49.673Z,3.45
2022-12-31T14:29:31.258Z,3.49
2022-12-31T14:32:33.987Z,3.44
2022-12-31T14:35:14.808Z,3.47
2022-12-31T14:38:08.965Z,3.31
2022-12-31T14:40:41.832Z,3.48
2022-12-31T14:43:20.842Z,3.51
2022-12-31T14:46:10.656Z,3.58
2022-12-31T14:48:43.677Z,3.62
2022-12-31T14:51:11.352Z,3.36
2022-12-31T14:53:38.242Z,3.64
2022-12-31T14:56:07.846Z,3.33
2022-12-31T14:58:37.136Z,3.69
2022-12-31T15:01:08.705Z,3.75
2022-12-31T15:03:45.420Z,3.69
2022-12-31T15:06:24.798Z,3.73
2022-12-31T15:09:12.944Z,3.69
2022-12-31T15:11:39.470Z,3.73
2022-12-31T15:14:43.221Z,3.74
2022-12-31T15:17:12.767Z,3.69
2022-12-31T15:19:54.840Z,3.62
2022-12-31T15:22:24.459Z,3.73
2022-12-31T15:24:51.156Z,3.65
2022-12-31T15:27:29.874Z,3.77
2022-12-31T15:29:56.560Z,3.80
2022-12-31T15:32:28.891Z,3.79
2022-12-31T15:35:26.094Z,3.74
2022-12-31T15:38:11.244Z,3.63
2022-12-31T15:40:44.388Z,3.56
2022-12-31T15:43:36.160Z,3.52
2022-12-31T15:46:08.349Z,3.50
2022-12-31T15:48:46.183Z,3.50
2022-12-31T15:51:21.964Z,3.61
2022-12-31T15:53:53.227Z,3.63
2022-12-31T15:56:35.852Z,3.63
2022-12-31T15:59:05.062Z,3.66
2022-12-31T16:01:34.457Z,3.53
2022-12-31T16:04:08.847Z,3.63
2022-12-31T16:06:38.957Z,3.58
2022-12-31T16:09:17.575Z,3.65
2022-12-31T16:11:44.706Z,3.67
2022-12-31T16:14:24.879Z,3.63
2022-12-31T16:17:01.202Z,3.62
2022-12-31T16:19:43.255Z,3.60
2022-12-31T16:22:16.737Z,3.41
2022-12-31T16:25:19.483Z,3.54
2022-12-31T16:27:31.471Z,3.58
2022-12-31T16:30:04.952Z,3.78
2022-12-31T16:32:38.478Z,3.71
2022-12-31T16:35:25.649Z,3.82
2022-12-31T16:38:14.641Z,3.74
2022-12-31T16:40:43.751Z,3.58
2022-12-31T16:43:47.524Z,3.63
2022-12-31T16:46:20.296Z,3.65
2022-12-31T16:48:53.929Z,3.61
2022-12-31T16:51:23.917Z,3.65
2022-12-31T16:53:50.925Z,3.69
2022-12-31T16:56:33.128Z,3.73
2022-12-31T16:59:34.950Z,3.64
2022-12-31T17:02:04.489Z,3.73
2022-12-31T17:04:31.228Z,3.87
2022-12-31T17:07:29.842Z,3.87
2022-12-31T17:10:08.614Z,3.93
2022-12-31T17:13:17.498Z,3.90
2022-12-31T17:15:48.931Z,3.87
2022-12-31T17:18:20.117Z,3.83
2022-12-31T17:20:47.085Z,3.87
2022-12-31T17:23:23.441Z,3.83
2022-12-31T17:25:58.248Z,3.68
2022-12-31T17:28:26.060Z,3.71
2022-12-31T17:30:52.859Z,3.79
2022-12-31T17:33:22.815Z,3.78
2022-12-31T17:35:56.076Z,3.75
2022-12-31T17:38:25.801Z,3.79
2022-12-31T17:40:54.127Z,3.80
2022-12-31T17:43:22.972Z,3.75
2022-12-31T17:45:53.185Z,3.75
2022-12-31T17:48:20.409Z,3.78
2022-12-31T17:50:52.341Z,3.77
2022-12-31T17:53:19.548Z,3.72
2022-12-31T17:55:48.480Z,3.69
2022-12-31T17:58:29.301Z,3.74
2022-12-31T18:00:56.626Z,3.70
2022-12-31T18:03:23.366Z,3.74
2022-12-31T18:05:50.102Z,3.73
2022-12-31T18:08:16.754Z,3.69
2022-12-31T18:10:44.546Z,3.68
2022-12-31T18:13:18.391Z,3.73
2022-12-31T18:15:45.213Z,3.77
2022-12-31T18:18:24.903Z,3.83
2022-12-31T18:20:58.316Z,3.79
2022-12-31T18:23:30.593Z,3.82
2022-12-31T18:25:57.415Z,3.89
2022-12-31T18:28:24.158Z,3.94
2022-12-31T18:30:51.227Z,4.01
2022-12-31T18:33:25.863Z,4.06
2022-12-31T18:36:10.023Z,4.11
2022-12-31T18:38:37.030Z,4.14
2022-12-31T18:41:04.107Z,4.11
2022-12-31T18:43:30.789Z,4.00
2022-12-31T18:45:57.621Z,4.09
2022-12-31T18:48:24.343Z,4.21
2022-12-31T18:50:51.281Z,4.19
2022-12-31T18:53:29.431Z,4.11
2022-12-31T18:56:06.961Z,4.07
2022-12-31T18:58:33.743Z,3.83
2022-12-31T19:01:00.735Z,3.85
2022-12-31T19:03:28.288Z,4.07
2022-12-31T19:05:55.077Z,4.08
2022-12-31T19:08:22.990Z,3.98
2022-12-31T19:10:51.486Z,3.95
2022-12-31T19:13:19.945Z,3.94
2022-12-31T19:15:51.884Z,3.92
2022-12-31T19:18:19.196Z,3.88
2022-12-31T19:20:46.256Z,3.90
2022-12-31T19:23:19.041Z,3.91
2022-12-31T19:25:46.675Z,3.97
2022-12-31T19:28:26.704Z,4.02
2022-12-31T19:30:53.672Z,3.97
2022-12-31T19:33:20.661Z,4.05
2022-12-31T19:35:47.415Z,4.11
2022-12-31T19:38:24.467Z,4.16
2022-12-31T19:40:52.236Z,4.21
2022-12-31T19:43:20.500Z,4.13
2022-12-31T19:45:47.596Z,4.13
2022-12-31T19:48:20.236Z,4.34
2022-12-31T19:50:48.844Z,4.41
2022-12-31T19:53:26.539Z,4.49
2022-12-31T19:55:53.524Z,4.55
2022-12-31T19:58:22.464Z,4.55
2022-12-31T20:00:55.615Z,4.60
2022-12-31T20:03:25.575Z,4.64
2022-12-31T20:06:01.529Z,4.62
2022-12-31T20:08:30.816Z,4.64
2022-12-31T20:10:59.025Z,4.65
2022-12-31T20:13:28.810Z,4.64
2022-12-31T20:15:55.486Z,4.60
2022-12-31T20:18:23.456Z,4.63
2022-12-31T20:20:55.570Z,4.68
2022-12-31T20:23:22.818Z,4.70
2022-12-31T20:26:02.156Z,4.73
2022-12-31T20:28:29.062Z,4.70
2022-12-31T20:30:55.895Z,4.77
2022-12-31T20:33:22.706Z,4.76
2022-12-31T20:35:49.349Z,4.84
2022-12-31T20:38:15.952Z,4.86
2022-12-31T20:40:46.663Z,4.84
2022-12-31T20:43:13.989Z,4.85
2022-12-31T20:45:41.529Z,4.84
2022-12-31T20:48:08.519Z,4.89
2022-12-31T20:50:35.280Z,4.94
2022-12-31T20:53:02.212Z,4.94
2022-12-31T20:55:30.822Z,5.02
2022-12-31T20:57:57.602Z,4.99
2022-12-31T21:00:24.220Z,5.01
2022-12-31T21:03:00.284Z,4.92
2022-12-31T21:05:33.540Z,4.93
2022-12-31T21:08:00.289Z,5.01
2022-12-31T21:10:26.876Z,5.02
2022-12-31T21:12:53.519Z,5.01
2022-12-31T21:15:21.696Z,5.00
2022-12-31T21:17:48.480Z,4.99
2022-12-31T21:20:15.108Z,4.99
2022-12-31T21:22:41.776Z,4.98
2022-12-31T21:25:09.621Z,4.93
2022-12-31T21:27:36.295Z,4.96
2022-12-31T21:30:19.811Z,5.00
2022-12-31T21:32:46.929Z,5.02
2022-12-31T21:38:03.981Z,5.06
2022-12-31T21:40:31.205Z,5.14
2022-12-31T21:42:58.121Z,5.14
2022-12-31T21:45:24.961Z,5.18
2022-12-31T21:48:10.313Z,5.30
2022-12-31T21:50:37.093Z,5.25
2022-12-31T21:53:03.721Z,5.23
2022-12-31T21:55:56.448Z,5.28
2022-12-31T21:58:26.324Z,5.39
2022-12-31T22:01:13.493Z,5.47
2022-12-31T22:03:40.482Z,5.43
2022-12-31T22:06:13.226Z,5.45
2022-12-31T22:08:41.539Z,5.54
2022-12-31T22:11:08.609Z,5.54
2022-12-31T22:13:35.873Z,5.54
2022-12-31T22:16:05.718Z,5.58
2022-12-31T22:18:35.756Z,5.55
2022-12-31T22:21:13.715Z,5.58
2022-12-31T22:23:44.556Z,5.60
2022-12-31T22:26:13.919Z,5.63
2022-12-31T22:28:41.923Z,5.66
2022-12-31T22:31:17.270Z,5.70
2022-12-31T22:33:43.952Z,5.70
2022-12-31T22:36:12.881Z,5.61
2022-12-31T22:38:39.822Z,5.70
2022-12-31T22:41:10.900Z,5.70
2022-12-31T22:43:40.174Z,5.61
2022-12-31T22:46:17.520Z,5.66
2022-12-31T22:48:44.386Z,5.65
2022-12-31T22:51:12.674Z,5.66
2022-12-31T22:53:41.306Z,5.68
2022-12-31T22:56:08.303Z,5.69
2022-12-31T22:58:35.313Z,5.65
2022-12-31T23:01:06.007Z,5.77
2022-12-31T23:03:32.931Z,5.76
2022-12-31T23:05:59.712Z,5.77
2022-12-31T23:08:26.369Z,5.81
2022-12-31T23:10:59.812Z,5.88
2022-12-31T23:13:51.221Z,5.90
2022-12-31T23:16:37.854Z,5.90
2022-12-31T23:19:24.057Z,6.03
2022-12-31T23:22:09.532Z,5.92
2022-12-31T23:24:36.451Z,6.03
2022-12-31T23:27:03.437Z,6.08
2022-12-31T23:29:30.141Z,6.13
2022-12-31T23:31:57.000Z,6.08
2022-12-31T23:34:23.672Z,5.95
2022-12-31T23:36:50.474Z,6.10
2022-12-31T23:39:17.187Z,6.07
2022-12-31T23:41:43.841Z,6.07
2022-12-31T23:44:11.985Z,6.04
2022-12-31T23:46:39.198Z,6.09
2022-12-31T23:49:06.532Z,6.17
2022-12-31T23:51:33.364Z,6.18
2022-12-31T23:54:00.016Z,6.18
2022-12-31T23:56:26.693Z,6.24
2022-12-31T23:58:57.233Z,6.18
